createdAt,value
2018-03-15T00:00:49.496Z,1.88
2018-03-15T00:01:49.646Z,1.76
2018-03-15T00:02:49.791Z,1.88
2018-03-15T00:03:49.946Z,1.92
2018-03-15T00:04:50.097Z,1.77
2018-03-15T00:05:50.247Z,2.02
2018-03-15T00:06:50.404Z,2.26
2018-03-15T00:07:50.537Z,2.39
2018-03-15T00:08:50.689Z,2.49
2018-03-15T00:09:50.849Z,2.54
2018-03-15T00:10:50.992Z,2.54
2018-03-15T00:11:51.149Z,2.61
2018-03-15T00:12:51.291Z,2.67
2018-03-15T00:13:51.442Z,2.62
2018-03-15T00:14:51.597Z,2.83
2018-03-15T00:15:51.744Z,2.92
2018-03-15T00:16:51.887Z,2.82
2018-03-15T00:17:52.042Z,2.57
2018-03-15T00:18:52.190Z,2.54
2018-03-15T00:19:52.345Z,2.50
2018-03-15T00:20:52.488Z,2.60
2018-03-15T00:21:52.637Z,2.46
2018-03-15T00:23:52.928Z,2.28
2018-03-15T00:24:53.073Z,2.28
2018-03-15T00:25:53.222Z,2.13
2018-03-15T00:26:53.371Z,1.99
2018-03-15T00:27:53.520Z,2.07
2018-03-15T00:28:53.668Z,1.94
2018-03-15T00:29:53.814Z,1.95
2018-03-15T00:30:53.973Z,2.10
2018-03-15T00:31:54.122Z,2.10
2018-03-15T00:32:54.265Z,2.00
2018-03-15T00:33:54.412Z,2.02
2018-03-15T00:34:54.939Z,1.95
2018-03-15T00:35:54.713Z,1.92
2018-03-15T00:36:54.857Z,1.92
2018-03-15T00:37:55.003Z,1.91
2018-03-15T00:38:55.155Z,2.02
2018-03-15T00:39:55.300Z,2.06
2018-03-15T00:40:55.446Z,1.97
2018-03-15T00:41:55.593Z,1.99
2018-03-15T00:42:55.745Z,2.02
2018-03-15T00:43:55.889Z,1.99
2018-03-15T00:44:56.039Z,1.95
2018-03-15T00:45:56.183Z,1.94
2018-03-15T00:46:56.336Z,1.94
2018-03-15T00:47:56.484Z,1.87
2018-03-15T00:48:56.620Z,1.91
2018-03-15T00:49:56.765Z,1.91
2018-03-15T00:50:56.902Z,1.84
2018-03-15T00:51:57.054Z,1.95
2018-03-15T00:52:57.199Z,2.17
2018-03-15T00:53:57.350Z,2.29
2018-03-15T00:54:57.498Z,2.46
2018-03-15T00:55:57.646Z,2.38
2018-03-15T00:56:57.790Z,2.42
2018-03-15T00:57:57.941Z,2.43
2018-03-15T00:58:58.085Z,2.42
2018-03-15T00:59:58.233Z,2.36
2018-03-15T01:00:58.382Z,2.47
2018-03-15T01:01:58.531Z,2.46
2018-03-15T01:02:58.680Z,2.47
2018-03-15T01:03:58.827Z,2.51
2018-03-15T01:04:58.974Z,2.57
2018-03-15T01:05:59.125Z,2.62
2018-03-15T01:06:59.273Z,2.67
2018-03-15T01:07:59.414Z,2.74
2018-03-15T01:08:59.562Z,2.79
2018-03-15T01:09:59.712Z,2.86
2018-03-15T01:10:59.862Z,2.87
2018-03-15T01:12:00.015Z,2.79
2018-03-15T01:13:00.154Z,2.85
2018-03-15T01:14:00.305Z,2.92
2018-03-15T01:15:00.453Z,2.83
2018-03-15T01:16:00.602Z,2.95
2018-03-15T01:17:00.750Z,2.97
2018-03-15T01:18:00.900Z,2.82
2018-03-15T01:19:01.048Z,2.93
2018-03-15T01:20:01.191Z,2.85
2018-03-15T01:21:01.340Z,2.92
2018-03-15T01:22:01.488Z,2.86
2018-03-15T01:23:01.633Z,2.85
2018-03-15T01:24:01.783Z,2.79
2018-03-15T01:25:01.931Z,2.79
2018-03-15T01:26:02.081Z,2.90
2018-03-15T01:27:02.232Z,2.85
2018-03-15T01:28:02.379Z,2.93
2018-03-15T01:29:02.538Z,2.90
2018-03-15T01:30:02.681Z,2.82
2018-03-15T01:31:02.819Z,2.80
2018-03-15T01:32:02.967Z,2.83
2018-03-15T01:33:03.123Z,2.79
2018-03-15T01:34:03.262Z,2.77
2018-03-15T01:35:03.411Z,2.74
2018-03-15T01:36:03.560Z,2.75
2018-03-15T01:37:03.709Z,2.75
2018-03-15T01:38:03.858Z,2.80
2018-03-15T01:39:04.006Z,2.79
2018-03-15T01:40:04.153Z,2.75
2018-03-15T01:41:04.302Z,2.82
2018-03-15T01:42:04.454Z,2.80
2018-03-15T01:43:04.601Z,2.79
2018-03-15T01:44:04.748Z,2.74
2018-03-15T01:45:04.905Z,2.86
2018-03-15T01:46:05.041Z,2.80
2018-03-15T01:48:05.338Z,2.92
2018-03-15T01:49:05.486Z,2.92
2018-03-15T01:50:05.639Z,2.92
2018-03-15T01:51:05.784Z,2.97
2018-03-15T01:52:05.931Z,3.00
2018-03-15T01:53:06.077Z,3.07
2018-03-15T01:54:06.226Z,2.98
2018-03-15T01:55:06.374Z,3.01
2018-03-15T01:56:06.524Z,3.11
2018-03-15T01:57:06.678Z,3.05
2018-03-15T01:58:06.811Z,3.13
2018-03-15T01:59:06.946Z,3.16
2018-03-15T02:00:07.096Z,3.16
2018-03-15T02:01:07.240Z,3.21
2018-03-15T02:02:07.391Z,3.14
2018-03-15T02:03:07.538Z,3.08
2018-03-15T02:04:07.685Z,3.04
2018-03-15T02:05:07.836Z,3.18
2018-03-15T02:06:07.983Z,3.13
2018-03-15T02:07:08.131Z,3.19
2018-03-15T02:08:08.281Z,3.18
2018-03-15T02:09:08.427Z,3.16
2018-03-15T02:10:08.577Z,3.21
2018-03-15T02:11:08.726Z,3.16
2018-03-15T02:12:08.870Z,3.10
2018-03-15T02:13:09.031Z,3.18
2018-03-15T02:14:09.175Z,3.11
2018-03-15T02:15:09.317Z,3.10
2018-03-15T02:16:09.464Z,3.08
2018-03-15T02:17:09.612Z,3.00
2018-03-15T02:18:09.762Z,3.03
2018-03-15T02:19:09.909Z,2.87
2018-03-15T02:20:10.065Z,2.86
2018-03-15T02:21:10.204Z,2.97
2018-03-15T02:22:10.352Z,2.95
2018-03-15T02:23:10.502Z,2.86
2018-03-15T02:24:10.650Z,2.92
2018-03-15T02:25:10.792Z,2.83
2018-03-15T02:26:10.940Z,2.93
2018-03-15T02:27:11.087Z,2.83
2018-03-15T02:28:11.246Z,2.80
2018-03-15T02:29:11.387Z,2.71
2018-03-15T02:30:11.534Z,2.80
2018-03-15T02:31:11.682Z,2.77
2018-03-15T02:32:11.837Z,2.72
2018-03-15T02:33:11.981Z,2.69
2018-03-15T02:34:12.141Z,2.75
2018-03-15T02:35:12.274Z,2.72
2018-03-15T02:36:12.433Z,2.68
2018-03-15T02:37:12.576Z,2.54
2018-03-15T02:38:12.721Z,2.67
2018-03-15T02:39:12.865Z,2.60
2018-03-15T02:40:13.015Z,2.65
2018-03-15T02:41:13.166Z,2.65
2018-03-15T02:42:13.311Z,2.54
2018-03-15T02:43:13.477Z,2.61
2018-03-15T02:44:13.610Z,2.67
2018-03-15T02:45:13.758Z,2.67
2018-03-15T02:46:13.906Z,2.65
2018-03-15T02:47:14.058Z,2.77
2018-03-15T02:48:14.203Z,2.64
2018-03-15T02:49:14.350Z,2.67
2018-03-15T02:50:14.495Z,2.62
2018-03-15T02:51:14.642Z,2.64
2018-03-15T02:52:14.798Z,2.65
2018-03-15T02:53:14.941Z,2.64
2018-03-15T02:54:15.088Z,2.53
2018-03-15T02:55:15.235Z,2.62
2018-03-15T02:56:15.385Z,2.61
2018-03-15T02:57:15.538Z,2.75
2018-03-15T02:58:15.680Z,2.79
2018-03-15T02:59:15.833Z,2.64
2018-03-15T03:00:15.983Z,2.65
2018-03-15T03:01:16.125Z,2.61
2018-03-15T03:02:16.270Z,2.64
2018-03-15T03:03:16.419Z,2.62
2018-03-15T03:04:16.571Z,2.69
2018-03-15T03:05:16.711Z,2.60
2018-03-15T03:06:16.860Z,2.67
2018-03-15T03:07:17.011Z,2.64
2018-03-15T03:08:17.157Z,2.56
2018-03-15T03:09:17.372Z,2.54
2018-03-15T03:10:17.456Z,2.50
2018-03-15T03:11:17.598Z,2.36
2018-03-15T03:12:17.746Z,2.31
2018-03-15T03:13:17.895Z,2.17
2018-03-15T03:14:18.048Z,2.20
2018-03-15T03:15:18.188Z,2.14
2018-03-15T03:16:18.337Z,2.13
2018-03-15T03:17:18.487Z,1.94
2018-03-15T03:18:18.639Z,1.87
2018-03-15T03:19:18.780Z,1.84
2018-03-15T03:20:18.930Z,1.88
2018-03-15T03:21:19.089Z,1.85
2018-03-15T03:22:19.224Z,1.71
2018-03-15T03:23:19.385Z,1.67
2018-03-15T03:24:19.523Z,1.78
2018-03-15T03:25:19.667Z,1.84
2018-03-15T03:26:19.816Z,1.87
2018-03-15T03:27:19.973Z,1.85
2018-03-15T03:28:20.113Z,1.74
2018-03-15T03:29:20.258Z,1.67
2018-03-15T03:30:20.408Z,1.67
2018-03-15T03:31:20.556Z,1.59
2018-03-15T03:32:20.710Z,1.60
2018-03-15T03:33:20.851Z,1.53
2018-03-15T03:34:20.996Z,1.55
2018-03-15T03:35:21.156Z,1.59
2018-03-15T03:36:21.296Z,1.52
2018-03-15T03:37:21.445Z,1.59
2018-03-15T03:38:21.598Z,1.42
2018-03-15T03:39:21.740Z,1.34
2018-03-15T03:40:21.894Z,1.37
2018-03-15T03:41:22.045Z,1.48
2018-03-15T03:42:22.181Z,1.45
2018-03-15T03:43:22.331Z,1.42
2018-03-15T03:44:22.483Z,1.45
2018-03-15T03:45:22.623Z,1.44
2018-03-15T03:46:22.824Z,1.34
2018-03-15T03:47:22.925Z,1.70
2018-03-15T03:48:23.070Z,1.78
2018-03-15T03:49:23.219Z,2.42
2018-03-15T03:50:23.369Z,2.57
2018-03-15T03:51:23.511Z,3.10
2018-03-15T03:52:23.660Z,3.74
2018-03-15T03:53:23.810Z,4.06
2018-03-15T03:54:23.961Z,4.06
2018-03-15T03:55:24.103Z,3.83
2018-03-15T03:56:24.259Z,3.63
2018-03-15T03:57:24.409Z,3.69
2018-03-15T03:58:24.550Z,3.60
2018-03-15T03:59:24.704Z,3.28
2018-03-15T04:00:24.846Z,3.03
2018-03-15T04:01:24.994Z,2.79
2018-03-15T04:02:25.143Z,2.67
2018-03-15T04:03:25.292Z,2.54
2018-03-15T04:04:25.435Z,2.50
2018-03-15T04:05:25.579Z,2.51
2018-03-15T04:06:25.738Z,2.39
2018-03-15T04:07:25.883Z,2.31
2018-03-15T04:08:26.036Z,2.24
2018-03-15T04:09:26.180Z,2.24
2018-03-15T04:10:26.329Z,2.17
2018-03-15T04:11:26.476Z,2.06
2018-03-15T04:12:26.623Z,2.54
2018-03-15T04:13:26.773Z,2.51
2018-03-15T04:14:26.919Z,2.51
2018-03-15T04:15:27.070Z,2.43
2018-03-15T04:16:27.219Z,2.35
2018-03-15T04:17:27.410Z,2.26
2018-03-15T04:18:27.515Z,2.28
2018-03-15T04:19:27.670Z,2.17
2018-03-15T04:20:27.807Z,2.11
2018-03-15T04:21:27.955Z,2.13
2018-03-15T04:22:28.103Z,1.97
2018-03-15T04:23:28.254Z,2.00
2018-03-15T04:24:28.400Z,1.87
2018-03-15T04:25:28.547Z,1.81
2018-03-15T04:26:28.695Z,1.60
2018-03-15T04:27:28.847Z,1.49
2018-03-15T04:28:28.992Z,1.56
2018-03-15T04:29:29.145Z,1.50
2018-03-15T04:30:29.285Z,1.38
2018-03-15T04:31:29.432Z,1.42
2018-03-15T04:32:29.583Z,1.31
2018-03-15T04:33:29.729Z,1.32
2018-03-15T04:34:29.875Z,1.40
2018-03-15T04:35:30.026Z,1.41
2018-03-15T04:36:30.181Z,1.35
2018-03-15T04:37:30.321Z,1.22
2018-03-15T04:38:30.464Z,1.19
2018-03-15T04:39:30.620Z,1.24
2018-03-15T04:40:30.762Z,1.20
2018-03-15T04:41:30.920Z,1.22
2018-03-15T04:42:31.065Z,1.26
2018-03-15T04:43:31.210Z,1.32
2018-03-15T04:44:31.354Z,1.32
2018-03-15T04:45:31.501Z,1.37
2018-03-15T04:46:31.645Z,1.32
2018-03-15T04:47:31.794Z,1.31
2018-03-15T04:48:31.943Z,1.28
2018-03-15T04:49:32.089Z,1.19
2018-03-15T04:50:32.244Z,1.20
2018-03-15T04:51:32.388Z,1.16
2018-03-15T04:52:32.533Z,1.20
2018-03-15T04:53:32.676Z,1.23
2018-03-15T04:54:32.831Z,1.13
2018-03-15T04:55:32.977Z,1.13
2018-03-15T04:56:33.121Z,1.19
2018-03-15T04:57:33.269Z,1.20
2018-03-15T04:58:33.468Z,1.31
2018-03-15T04:59:33.564Z,1.30
2018-03-15T05:00:33.714Z,1.23
2018-03-15T05:01:33.863Z,1.19
2018-03-15T05:02:34.012Z,1.05
2018-03-15T05:03:34.160Z,0.95
2018-03-15T05:04:34.311Z,1.01
2018-03-15T05:05:34.451Z,0.91
2018-03-15T05:06:34.602Z,0.76
2018-03-15T05:07:34.747Z,0.94
2018-03-15T05:08:34.893Z,0.87
2018-03-15T05:09:35.044Z,0.96
2018-03-15T05:10:35.191Z,0.87
2018-03-15T05:11:35.336Z,0.77
2018-03-15T05:12:35.528Z,0.80
2018-03-15T05:13:35.627Z,0.78
2018-03-15T05:14:35.781Z,0.78
2018-03-15T05:15:35.920Z,0.78
2018-03-15T05:16:36.074Z,0.77
2018-03-15T05:17:36.215Z,0.73
2018-03-15T05:18:36.366Z,0.68
2018-03-15T05:19:36.511Z,0.59
2018-03-15T05:20:36.659Z,0.52
2018-03-15T05:21:36.816Z,0.68
2018-03-15T05:22:36.957Z,0.80
2018-03-15T05:23:37.101Z,0.68
2018-03-15T05:24:37.250Z,0.66
2018-03-15T05:25:37.396Z,0.60
2018-03-15T05:26:37.548Z,0.68
2018-03-15T05:27:37.694Z,0.66
2018-03-15T05:28:37.839Z,0.73
2018-03-15T05:29:37.988Z,0.83
2018-03-15T05:30:38.136Z,0.78
2018-03-15T05:31:38.296Z,0.84
2018-03-15T05:32:38.429Z,0.76
2018-03-15T05:33:38.580Z,0.83
2018-03-15T05:34:38.726Z,0.86
2018-03-15T05:35:38.874Z,0.84
2018-03-15T05:36:39.021Z,1.12
2018-03-15T05:37:39.168Z,1.02
2018-03-15T05:38:39.313Z,1.17
2018-03-15T05:39:39.462Z,1.20
2018-03-15T05:40:39.605Z,1.12
2018-03-15T05:41:39.758Z,1.05
2018-03-15T05:42:39.906Z,0.99
2018-03-15T05:43:40.052Z,0.98
2018-03-15T05:44:40.200Z,1.06
2018-03-15T05:45:40.344Z,1.05
2018-03-15T05:46:40.496Z,1.05
2018-03-15T05:47:40.649Z,1.16
2018-03-15T05:48:40.788Z,1.17
2018-03-15T05:49:40.947Z,1.17
2018-03-15T05:50:41.088Z,1.24
2018-03-15T05:51:41.232Z,1.32
2018-03-15T05:52:41.382Z,1.35
2018-03-15T05:53:41.530Z,1.52
2018-03-15T05:54:41.679Z,1.62
2018-03-15T05:55:41.822Z,1.68
2018-03-15T05:56:41.978Z,1.62
2018-03-15T05:57:42.117Z,1.71
2018-03-15T05:58:42.268Z,1.50
2018-03-15T05:59:42.412Z,1.60
2018-03-15T06:00:42.561Z,1.58
2018-03-15T06:01:42.739Z,1.58
2018-03-15T06:02:42.850Z,1.67
2018-03-15T06:03:42.998Z,1.59
2018-03-15T06:04:43.141Z,1.60
2018-03-15T06:05:43.290Z,1.77
2018-03-15T06:06:43.441Z,1.88
2018-03-15T06:07:43.588Z,2.04
2018-03-15T06:08:43.734Z,2.02
2018-03-15T06:09:43.880Z,1.95
2018-03-15T06:10:44.029Z,1.89
2018-03-15T06:11:44.177Z,1.78
2018-03-15T06:12:44.319Z,1.89
2018-03-15T06:13:44.470Z,1.77
2018-03-15T06:14:44.616Z,1.85
2018-03-15T06:15:44.763Z,1.88
2018-03-15T06:17:45.050Z,1.92
2018-03-15T06:18:45.200Z,1.99
2018-03-15T06:19:45.344Z,1.92
2018-03-15T06:20:45.491Z,1.88
2018-03-15T06:21:45.637Z,1.92
2018-03-15T06:22:45.788Z,1.91
2018-03-15T06:23:45.934Z,1.94
2018-03-15T06:24:46.085Z,2.00
2018-03-15T06:25:46.230Z,1.97
2018-03-15T06:26:46.375Z,2.14
2018-03-15T06:27:46.523Z,2.17
2018-03-15T06:28:46.952Z,2.17
2018-03-15T06:29:46.811Z,2.33
2018-03-15T06:30:46.964Z,2.35
2018-03-15T06:31:47.114Z,2.47
2018-03-15T06:32:47.258Z,2.50
2018-03-15T06:33:47.413Z,2.46
2018-03-15T06:34:47.556Z,2.47
2018-03-15T06:35:47.701Z,2.50
2018-03-15T06:36:47.848Z,2.50
2018-03-15T06:37:47.998Z,2.47
2018-03-15T06:38:48.149Z,2.39
2018-03-15T06:39:48.298Z,2.49
2018-03-15T06:40:48.429Z,2.47
2018-03-15T06:41:48.582Z,2.50
2018-03-15T06:42:48.731Z,2.51
2018-03-15T06:43:48.875Z,2.60
2018-03-15T06:44:49.028Z,2.68
2018-03-15T06:45:49.169Z,2.61
2018-03-15T06:46:49.319Z,2.69
2018-03-15T06:47:49.464Z,2.79
2018-03-15T06:48:49.615Z,2.67
2018-03-15T06:49:49.775Z,2.82
2018-03-15T06:50:49.912Z,2.72
2018-03-15T06:51:50.073Z,2.71
2018-03-15T06:52:50.215Z,2.80
2018-03-15T06:53:50.350Z,2.82
2018-03-15T06:54:50.500Z,2.79
2018-03-15T06:55:50.648Z,2.82
2018-03-15T06:56:50.796Z,2.90
2018-03-15T06:57:50.957Z,2.93
2018-03-15T06:58:51.097Z,2.98
2018-03-15T06:59:51.246Z,2.93
2018-03-15T07:00:51.395Z,2.98
2018-03-15T07:01:51.542Z,3.00
2018-03-15T07:02:51.683Z,3.00
2018-03-15T07:03:51.854Z,3.05
2018-03-15T07:04:51.971Z,3.04
2018-03-15T07:05:52.118Z,3.01
2018-03-15T07:06:52.282Z,3.23
2018-03-15T07:07:52.433Z,3.22
2018-03-15T07:08:52.826Z,3.26
2018-03-15T07:09:52.730Z,3.26
2018-03-15T07:10:52.881Z,3.44
2018-03-15T07:11:53.039Z,3.37
2018-03-15T07:12:53.181Z,3.40
2018-03-15T07:13:53.329Z,3.40
2018-03-15T07:14:53.479Z,3.32
2018-03-15T07:15:53.626Z,3.47
2018-03-15T07:16:53.773Z,3.48
2018-03-15T07:17:53.935Z,3.48
2018-03-15T07:18:54.061Z,3.56
2018-03-15T07:19:54.197Z,3.59
2018-03-15T07:20:54.361Z,3.51
2018-03-15T07:21:54.512Z,3.66
2018-03-15T07:22:54.665Z,3.65
2018-03-15T07:23:54.812Z,3.69
2018-03-15T07:24:54.961Z,3.77
2018-03-15T07:25:55.113Z,3.77
2018-03-15T07:26:55.259Z,3.92
2018-03-15T07:27:55.407Z,3.92
2018-03-15T07:28:55.557Z,4.08
2018-03-15T07:29:55.704Z,4.05
2018-03-15T07:30:55.853Z,4.04
2018-03-15T07:31:56.001Z,4.35
2018-03-15T07:32:56.152Z,4.67
2018-03-15T07:33:56.299Z,5.14
2018-03-15T07:34:56.448Z,5.80
2018-03-15T07:35:56.597Z,6.30
2018-03-15T07:36:56.745Z,6.45
2018-03-15T07:37:56.898Z,6.87
2018-03-15T07:38:57.049Z,7.32
2018-03-15T07:39:57.199Z,7.51
2018-03-15T07:40:57.354Z,7.80
2018-03-15T07:41:57.503Z,8.08
2018-03-15T07:42:57.649Z,8.55
2018-03-15T07:43:57.803Z,8.85
2018-03-15T07:44:57.957Z,9.08
2018-03-15T07:45:58.106Z,9.10
2018-03-15T07:46:58.258Z,8.88
2018-03-15T07:47:58.409Z,8.56
2018-03-15T07:48:58.569Z,8.60
2018-03-15T07:49:58.714Z,8.82
2018-03-15T07:50:58.864Z,8.97
2018-03-15T07:51:59.020Z,9.03
2018-03-15T07:52:59.168Z,9.29
2018-03-15T07:53:59.340Z,9.51
2018-03-15T07:54:59.496Z,9.83
2018-03-15T07:55:59.652Z,10.19
2018-03-15T07:56:59.807Z,10.30
2018-03-15T07:57:59.954Z,10.20
2018-03-15T07:59:00.112Z,10.33
2018-03-15T08:00:00.258Z,10.60
2018-03-15T08:01:00.411Z,10.34
2018-03-15T08:02:00.585Z,10.22
2018-03-15T08:03:00.715Z,10.51
2018-03-15T08:04:00.868Z,10.56
2018-03-15T08:05:01.025Z,10.72
2018-03-15T08:06:01.184Z,10.60
2018-03-15T08:07:01.331Z,10.75
2018-03-15T08:08:01.498Z,10.93
2018-03-15T08:09:01.648Z,11.23
2018-03-15T08:10:01.799Z,10.86
2018-03-15T08:11:01.956Z,10.67
2018-03-15T08:12:02.208Z,10.89
2018-03-15T08:13:02.263Z,11.14
2018-03-15T08:14:02.411Z,11.17
2018-03-15T08:15:02.570Z,11.29
2018-03-15T08:16:02.715Z,11.33
2018-03-15T08:17:02.889Z,11.15
2018-03-15T08:18:03.027Z,11.32
2018-03-15T08:19:03.181Z,11.72
2018-03-15T08:20:03.334Z,11.41
2018-03-15T08:21:03.502Z,11.40
2018-03-15T08:22:03.651Z,11.84
2018-03-15T08:23:03.806Z,11.90
2018-03-15T08:24:03.962Z,11.87
2018-03-15T08:25:04.118Z,11.57
2018-03-15T08:26:04.311Z,11.15
2018-03-15T08:27:04.424Z,11.45
2018-03-15T08:28:04.579Z,11.50
2018-03-15T08:29:04.738Z,11.60
2018-03-15T08:30:04.922Z,11.54
2018-03-15T08:31:05.046Z,11.04
2018-03-15T08:32:05.201Z,11.25
2018-03-15T08:33:05.344Z,10.93
2018-03-15T08:34:05.506Z,10.51
2018-03-15T08:35:05.667Z,10.56
2018-03-15T08:36:05.826Z,10.61
2018-03-15T08:37:05.974Z,11.00
2018-03-15T08:38:06.133Z,10.96
2018-03-15T08:39:06.285Z,10.72
2018-03-15T08:40:06.443Z,10.76
2018-03-15T08:41:06.594Z,10.82
2018-03-15T08:42:06.749Z,10.90
2018-03-15T08:43:06.903Z,10.72
2018-03-15T08:44:07.059Z,10.63
2018-03-15T08:45:07.216Z,10.35
2018-03-15T08:46:07.366Z,10.22
2018-03-15T08:47:07.523Z,10.07
2018-03-15T08:48:07.677Z,10.37
2018-03-15T08:49:07.833Z,10.57
2018-03-15T08:50:07.989Z,10.49
2018-03-15T08:51:08.387Z,10.28
2018-03-15T08:52:08.295Z,10.46
2018-03-15T08:53:08.455Z,10.16
2018-03-15T08:54:08.615Z,10.05
2018-03-15T08:55:08.763Z,10.13
2018-03-15T08:56:08.915Z,10.16
2018-03-15T08:57:09.084Z,10.37
2018-03-15T08:58:09.243Z,10.33
2018-03-15T08:59:09.386Z,10.33
2018-03-15T09:00:09.544Z,10.64
2018-03-15T09:01:09.690Z,10.97
2018-03-15T09:02:09.856Z,11.32
2018-03-15T09:03:10.014Z,11.36
2018-03-15T09:04:10.158Z,10.79
2018-03-15T09:05:10.315Z,10.44
2018-03-15T09:06:10.471Z,10.40
2018-03-15T09:07:10.621Z,10.42
2018-03-15T09:08:10.778Z,10.64
2018-03-15T09:09:10.926Z,10.99
2018-03-15T09:10:11.090Z,11.19
2018-03-15T09:11:11.237Z,11.35
2018-03-15T09:12:11.400Z,11.07
2018-03-15T09:13:11.543Z,11.00
2018-03-15T09:14:11.700Z,11.23
2018-03-15T09:15:11.849Z,11.27
2018-03-15T09:16:12.009Z,11.15
2018-03-15T09:17:12.160Z,11.04
2018-03-15T09:18:12.316Z,10.74
2018-03-15T09:19:12.716Z,11.04
2018-03-15T09:20:12.623Z,10.61
2018-03-15T09:21:12.898Z,10.59
2018-03-15T09:22:12.940Z,10.57
2018-03-15T09:23:13.083Z,10.84
2018-03-15T09:24:13.238Z,10.96
2018-03-15T09:25:13.400Z,11.00
2018-03-15T09:26:13.556Z,10.99
2018-03-15T09:27:13.716Z,11.25
2018-03-15T09:28:13.874Z,11.35
2018-03-15T09:29:14.026Z,11.41
2018-03-15T09:30:14.184Z,11.37
2018-03-15T09:31:14.330Z,11.44
2018-03-15T09:32:14.474Z,11.08
2018-03-15T09:33:14.627Z,11.12
2018-03-15T09:34:14.789Z,10.90
2018-03-15T09:35:14.940Z,10.93
2018-03-15T09:36:15.097Z,10.76
2018-03-15T09:37:15.253Z,10.76
2018-03-15T09:38:15.404Z,10.38
2018-03-15T09:39:15.560Z,10.16
2018-03-15T09:40:15.713Z,10.28
2018-03-15T09:41:15.863Z,10.35
2018-03-15T09:42:16.016Z,10.17
2018-03-15T09:43:16.177Z,10.30
2018-03-15T09:44:16.327Z,10.33
2018-03-15T09:45:16.485Z,10.60
2018-03-15T09:46:16.775Z,10.75
2018-03-15T09:47:16.826Z,10.87
2018-03-15T09:48:17.224Z,10.97
2018-03-15T09:49:17.120Z,11.00
2018-03-15T09:50:17.269Z,10.74
2018-03-15T09:51:17.505Z,10.51
2018-03-15T09:52:17.576Z,10.42
2018-03-15T09:53:17.733Z,10.31
2018-03-15T09:54:17.886Z,10.17
2018-03-15T09:55:18.085Z,10.23
2018-03-15T09:56:18.195Z,10.33
2018-03-15T09:57:18.345Z,10.15
2018-03-15T09:58:18.525Z,10.34
2018-03-15T09:59:18.662Z,10.51
2018-03-15T10:00:18.808Z,10.44
2018-03-15T10:01:18.964Z,10.61
2018-03-15T10:02:19.116Z,10.60
2018-03-15T10:03:19.272Z,10.41
2018-03-15T10:04:19.426Z,10.56
2018-03-15T10:05:19.580Z,10.56
2018-03-15T10:06:19.742Z,10.56
2018-03-15T10:07:19.887Z,10.76
2018-03-15T10:08:20.041Z,10.79
2018-03-15T10:09:20.194Z,10.82
2018-03-15T10:10:20.348Z,10.69
2018-03-15T10:11:20.503Z,10.75
2018-03-15T10:12:20.657Z,10.78
2018-03-15T10:13:20.810Z,10.94
2018-03-15T10:14:20.968Z,11.05
2018-03-15T10:15:21.126Z,11.18
2018-03-15T10:16:21.283Z,11.36
2018-03-15T10:17:21.428Z,11.27
2018-03-15T10:18:21.581Z,11.29
2018-03-15T10:19:21.731Z,11.26
2018-03-15T10:20:21.881Z,11.40
2018-03-15T10:21:22.033Z,11.30
2018-03-15T10:22:22.189Z,11.26
2018-03-15T10:23:22.344Z,11.35
2018-03-15T10:24:22.501Z,11.27
2018-03-15T10:25:26.393Z,11.33
2018-03-15T10:26:22.807Z,11.37
2018-03-15T10:27:22.988Z,11.26
2018-03-15T10:28:23.107Z,11.10
2018-03-15T10:29:23.259Z,10.90
2018-03-15T10:30:23.410Z,10.86
2018-03-15T10:31:23.558Z,10.74
2018-03-15T10:32:23.716Z,10.74
2018-03-15T10:33:23.875Z,10.67
2018-03-15T10:34:24.024Z,10.44
2018-03-15T10:35:24.179Z,10.42
2018-03-15T10:36:24.332Z,10.44
2018-03-15T10:37:24.495Z,10.44
2018-03-15T10:38:24.640Z,10.56
2018-03-15T10:39:24.793Z,10.63
2018-03-15T10:40:24.952Z,10.81
2018-03-15T10:41:25.108Z,10.92
2018-03-15T10:42:25.258Z,10.74
2018-03-15T10:43:25.418Z,10.74
2018-03-15T10:44:25.565Z,10.99
2018-03-15T10:45:25.790Z,11.08
2018-03-15T10:46:25.913Z,11.37
2018-03-15T10:47:26.068Z,11.44
2018-03-15T10:48:26.223Z,11.48
2018-03-15T10:49:26.386Z,11.63
2018-03-15T10:50:26.531Z,11.59
2018-03-15T10:51:26.686Z,11.63
2018-03-15T10:52:26.851Z,11.44
2018-03-15T10:53:26.992Z,11.43
2018-03-15T10:54:27.153Z,11.14
2018-03-15T10:55:27.299Z,11.19
2018-03-15T10:56:27.451Z,10.97
2018-03-15T10:57:27.608Z,11.00
2018-03-15T10:58:27.758Z,11.05
2018-03-15T10:59:27.917Z,11.26
2018-03-15T11:00:28.067Z,11.08
2018-03-15T11:01:28.214Z,10.97
2018-03-15T11:02:28.373Z,11.02
2018-03-15T11:03:28.520Z,11.12
2018-03-15T11:04:28.680Z,10.99
2018-03-15T11:05:28.831Z,10.81
2018-03-15T11:06:28.986Z,10.90
2018-03-15T11:07:29.137Z,10.94
2018-03-15T11:08:29.282Z,11.12
2018-03-15T11:09:29.440Z,11.04
2018-03-15T11:10:29.595Z,11.17
2018-03-15T11:11:29.741Z,11.18
2018-03-15T11:12:29.900Z,11.04
2018-03-15T11:13:30.054Z,11.05
2018-03-15T11:14:30.209Z,10.90
2018-03-15T11:15:30.358Z,10.93
2018-03-15T11:16:30.510Z,10.76
2018-03-15T11:17:30.663Z,10.84
2018-03-15T11:18:30.815Z,10.60
2018-03-15T11:19:30.971Z,10.67
2018-03-15T11:20:31.126Z,10.60
2018-03-15T11:21:31.278Z,10.75
2018-03-15T11:22:31.428Z,10.89
2018-03-15T11:23:31.592Z,10.79
2018-03-15T11:24:31.734Z,10.57
2018-03-15T11:25:31.887Z,10.61
2018-03-15T11:26:32.037Z,10.57
2018-03-15T11:27:32.190Z,10.60
2018-03-15T11:28:32.344Z,10.76
2018-03-15T11:29:32.494Z,10.84
2018-03-15T11:30:32.648Z,10.96
2018-03-15T11:31:32.799Z,11.02
2018-03-15T11:32:32.955Z,11.14
2018-03-15T11:33:33.106Z,11.02
2018-03-15T11:34:33.262Z,10.82
2018-03-15T11:35:33.414Z,10.75
2018-03-15T11:36:33.569Z,10.82
2018-03-15T11:37:33.714Z,10.93
2018-03-15T11:38:33.899Z,11.10
2018-03-15T11:39:34.017Z,11.14
2018-03-15T11:40:34.176Z,11.18
2018-03-15T11:41:34.323Z,11.23
2018-03-15T11:42:34.485Z,11.30
2018-03-15T11:43:34.632Z,11.29
2018-03-15T11:44:34.787Z,11.37
2018-03-15T11:45:34.940Z,11.25
2018-03-15T11:46:35.093Z,11.12
2018-03-15T11:47:35.250Z,11.14
2018-03-15T11:48:35.399Z,11.37
2018-03-15T11:49:35.550Z,11.32
2018-03-15T11:50:35.707Z,11.36
2018-03-15T11:51:35.859Z,11.45
2018-03-15T11:52:36.010Z,11.69
2018-03-15T11:53:36.170Z,11.70
2018-03-15T11:54:36.330Z,11.69
2018-03-15T11:55:36.486Z,11.62
2018-03-15T11:56:36.636Z,11.65
2018-03-15T11:58:36.938Z,11.35
2018-03-15T11:59:37.088Z,11.12
2018-03-15T12:00:37.249Z,11.12
2018-03-15T12:01:37.453Z,11.15
2018-03-15T12:02:37.545Z,11.17
2018-03-15T12:03:37.698Z,11.19
2018-03-15T12:04:37.854Z,11.29
2018-03-15T12:05:38.013Z,11.22
2018-03-15T12:06:38.161Z,11.40
2018-03-15T12:07:38.412Z,11.32
2018-03-15T12:08:38.482Z,11.35
2018-03-15T12:09:38.650Z,11.35
2018-03-15T12:10:38.792Z,11.27
2018-03-15T12:11:38.952Z,11.41
2018-03-15T12:12:39.099Z,11.40
2018-03-15T12:13:39.256Z,11.30
2018-03-15T12:14:39.407Z,11.36
2018-03-15T12:15:39.562Z,11.37
2018-03-15T12:16:39.711Z,11.35
2018-03-15T12:17:39.864Z,11.47
2018-03-15T12:18:40.025Z,11.52
2018-03-15T12:19:40.178Z,11.35
2018-03-15T12:20:40.328Z,11.32
2018-03-15T12:21:40.487Z,11.43
2018-03-15T12:22:40.645Z,11.33
2018-03-15T12:23:40.795Z,11.59
2018-03-15T12:24:40.954Z,11.59
2018-03-15T12:26:41.236Z,11.94
2018-03-15T12:27:41.374Z,11.75
2018-03-15T12:28:41.527Z,11.88
2018-03-15T12:29:41.688Z,11.83
2018-03-15T12:30:41.834Z,11.69
2018-03-15T12:31:42.006Z,11.77
2018-03-15T12:32:42.154Z,11.78
2018-03-15T12:33:42.327Z,11.81
2018-03-15T12:34:42.468Z,11.91
2018-03-15T12:35:42.619Z,11.95
2018-03-15T12:36:42.768Z,12.09
2018-03-15T12:37:42.928Z,12.04
2018-03-15T12:38:43.080Z,12.00
2018-03-15T12:39:43.240Z,12.09
2018-03-15T12:40:43.391Z,12.17
2018-03-15T12:41:43.549Z,12.07
2018-03-15T12:42:43.701Z,12.00
2018-03-15T12:43:43.856Z,12.07
2018-03-15T12:44:44.003Z,12.00
2018-03-15T12:45:44.161Z,11.88
2018-03-15T12:46:44.316Z,11.94
2018-03-15T12:47:44.467Z,12.10
2018-03-15T12:48:44.625Z,12.21
2018-03-15T12:49:44.784Z,12.35
2018-03-15T12:50:44.935Z,12.45
2018-03-15T12:51:45.092Z,12.40
2018-03-15T12:52:45.253Z,12.54
2018-03-15T12:53:45.398Z,12.54
2018-03-15T12:54:45.555Z,12.58
2018-03-15T12:55:45.708Z,12.55
2018-03-15T12:56:45.864Z,12.58
2018-03-15T12:57:46.024Z,12.57
2018-03-15T12:58:46.174Z,12.43
2018-03-15T12:59:46.330Z,12.35
2018-03-15T13:00:46.492Z,12.31
2018-03-15T13:01:46.644Z,12.35
2018-03-15T13:02:46.797Z,12.36
2018-03-15T13:03:46.949Z,12.42
2018-03-15T13:04:47.104Z,12.46
2018-03-15T13:05:47.264Z,12.46
2018-03-15T13:06:47.421Z,12.27
2018-03-15T13:07:47.571Z,12.28
2018-03-15T13:08:47.723Z,12.43
2018-03-15T13:09:47.880Z,12.43
2018-03-15T13:10:48.048Z,12.21
2018-03-15T13:11:48.187Z,12.29
2018-03-15T13:12:48.342Z,12.31
2018-03-15T13:13:48.497Z,12.40
2018-03-15T13:14:48.647Z,12.40